sensor_id;sensor_type;location;lat;lon;timestamp;P1;durP1;ratioP1;P2;durP2;ratioP2
8819;SDS011;4446;50.876;4.736;2023-08-30T00:01:45;5.85;;;5.07;;
8819;SDS011;4446;50.876;4.736;2023-08-30T00:04:12;7.43;;;5.53;;
8819;SDS011;4446;50.876;4.736;2023-08-30T00:06:39;5.70;;;4.43;;
8819;SDS011;4446;50.876;4.736;2023-08-30T00:09:06;6.10;;;4.95;;
8819;SDS011;4446;50.876;4.736;2023-08-30T00:11:33;7.50;;;5.50;;
8819;SDS011;4446;50.876;4.736;2023-08-30T00:14:04;7.20;;;5.03;;
8819;SDS011;4446;50.876;4.736;2023-08-30T00:16:33;5.30;;;4.47;;
8819;SDS011;4446;50.876;4.736;2023-08-30T00:19:00;6.10;;;4.88;;
8819;SDS011;4446;50.876;4.736;2023-08-30T00:21:27;5.65;;;4.57;;
8819;SDS011;4446;50.876;4.736;2023-08-30T00:23:54;6.22;;;5.13;;
8819;SDS011;4446;50.876;4.736;2023-08-30T00:26:21;6.40;;;4.70;;
8819;SDS011;4446;50.876;4.736;2023-08-30T00:28:48;6.32;;;4.22;;
8819;SDS011;4446;50.876;4.736;2023-08-30T00:31:15;6.75;;;5.20;;
8819;SDS011;4446;50.876;4.736;2023-08-30T00:33:44;5.95;;;4.85;;
8819;SDS011;4446;50.876;4.736;2023-08-30T00:36:11;7.45;;;4.75;;
8819;SDS011;4446;50.876;4.736;2023-08-30T00:38:38;6.40;;;4.93;;
8819;SDS011;4446;50.876;4.736;2023-08-30T00:41:05;6.95;;;5.10;;
8819;SDS011;4446;50.876;4.736;2023-08-30T00:43:32;6.38;;;4.85;;
8819;SDS011;4446;50.876;4.736;2023-08-30T00:45:59;7.88;;;5.05;;
8819;SDS011;4446;50.876;4.736;2023-08-30T00:48:26;7.72;;;5.57;;
8819;SDS011;4446;50.876;4.736;2023-08-30T00:50:55;6.35;;;4.65;;
8819;SDS011;4446;50.876;4.736;2023-08-30T00:53:22;7.05;;;4.88;;
8819;SDS011;4446;50.876;4.736;2023-08-30T00:55:49;7.28;;;4.90;;
8819;SDS011;4446;50.876;4.736;2023-08-30T00:58:16;6.10;;;4.82;;
8819;SDS011;4446;50.876;4.736;2023-08-30T01:00:43;6.93;;;5.40;;
8819;SDS011;4446;50.876;4.736;2023-08-30T01:03:12;4.88;;;4.38;;
8819;SDS011;4446;50.876;4.736;2023-08-30T01:05:39;5.82;;;4.45;;
8819;SDS011;4446;50.876;4.736;2023-08-30T01:08:08;7.53;;;5.03;;
8819;SDS011;4446;50.876;4.736;2023-08-30T01:10:43;6.65;;;4.82;;
8819;SDS011;4446;50.876;4.736;2023-08-30T01:13:18;5.75;;;4.75;;
8819;SDS011;4446;50.876;4.736;2023-08-30T01:15:47;7.22;;;5.32;;
8819;SDS011;4446;50.876;4.736;2023-08-30T01:18:16;6.30;;;4.88;;
8819;SDS011;4446;50.876;4.736;2023-08-30T01:20:45;6.03;;;4.65;;
8819;SDS011;4446;50.876;4.736;2023-08-30T01:23:17;5.03;;;4.38;;
8819;SDS011;4446;50.876;4.736;2023-08-30T01:25:55;5.85;;;4.30;;
8819;SDS011;4446;50.876;4.736;2023-08-30T01:28:31;5.78;;;4.45;;
8819;SDS011;4446;50.876;4.736;2023-08-30T01:31:00;4.50;;;4.05;;
8819;SDS011;4446;50.876;4.736;2023-08-30T01:33:28;6.75;;;4.60;;
8819;SDS011;4446;50.876;4.736;2023-08-30T01:35:57;4.25;;;3.83;;
8819;SDS011;4446;50.876;4.736;2023-08-30T01:38:26;5.07;;;4.25;;
8819;SDS011;4446;50.876;4.736;2023-08-30T01:40:54;6.03;;;4.47;;
8819;SDS011;4446;50.876;4.736;2023-08-30T01:43:24;6.00;;;4.45;;
8819;SDS011;4446;50.876;4.736;2023-08-30T01:45:54;6.13;;;4.55;;
8819;SDS011;4446;50.876;4.736;2023-08-30T01:48:22;5.00;;;4.18;;
8819;SDS011;4446;50.876;4.736;2023-08-30T01:50:50;6.65;;;4.80;;
8819;SDS011;4446;50.876;4.736;2023-08-30T01:53:19;6.00;;;5.32;;
8819;SDS011;4446;50.876;4.736;2023-08-30T01:55:48;5.93;;;4.47;;
8819;SDS011;4446;50.876;4.736;2023-08-30T01:58:15;6.40;;;5.18;;
8819;SDS011;4446;50.876;4.736;2023-08-30T02:00:42;6.30;;;5.18;;
8819;SDS011;4446;50.876;4.736;2023-08-30T02:03:11;4.90;;;4.15;;
8819;SDS011;4446;50.876;4.736;2023-08-30T02:05:40;5.97;;;4.22;;
8819;SDS011;4446;50.876;4.736;2023-08-30T02:08:14;8.25;;;4.53;;
8819;SDS011;4446;50.876;4.736;2023-08-30T02:10:45;8.63;;;5.40;;
8819;SDS011;4446;50.876;4.736;2023-08-30T02:13:18;6.25;;;5.00;;
8819;SDS011;4446;50.876;4.736;2023-08-30T02:15:51;5.82;;;5.00;;
8819;SDS011;4446;50.876;4.736;2023-08-30T02:18:22;7.43;;;5.03;;
8819;SDS011;4446;50.876;4.736;2023-08-30T02:20:50;7.88;;;5.30;;
8819;SDS011;4446;50.876;4.736;2023-08-30T02:23:17;7.38;;;5.10;;
8819;SDS011;4446;50.876;4.736;2023-08-30T02:25:44;6.82;;;5.90;;
8819;SDS011;4446;50.876;4.736;2023-08-30T02:28:11;9.02;;;5.63;;
8819;SDS011;4446;50.876;4.736;2023-08-30T02:30:38;7.28;;;5.30;;
8819;SDS011;4446;50.876;4.736;2023-08-30T02:33:05;7.45;;;5.57;;
8819;SDS011;4446;50.876;4.736;2023-08-30T02:35:33;8.25;;;6.05;;
8819;SDS011;4446;50.876;4.736;2023-08-30T02:38:00;8.27;;;5.95;;
8819;SDS011;4446;50.876;4.736;2023-08-30T02:40:30;9.65;;;6.35;;
8819;SDS011;4446;50.876;4.736;2023-08-30T02:42:57;8.25;;;6.05;;
8819;SDS011;4446;50.876;4.736;2023-08-30T02:45:24;7.80;;;6.22;;
8819;SDS011;4446;50.876;4.736;2023-08-30T02:47:54;8.48;;;6.55;;
8819;SDS011;4446;50.876;4.736;2023-08-30T02:50:22;10.93;;;6.65;;
8819;SDS011;4446;50.876;4.736;2023-08-30T02:52:50;8.23;;;5.72;;
8819;SDS011;4446;50.876;4.736;2023-08-30T02:55:17;8.55;;;6.10;;
8819;SDS011;4446;50.876;4.736;2023-08-30T02:57:44;8.70;;;5.63;;
8819;SDS011;4446;50.876;4.736;2023-08-30T03:00:12;10.18;;;6.57;;
8819;SDS011;4446;50.876;4.736;2023-08-30T03:02:40;8.05;;;6.25;;
8819;SDS011;4446;50.876;4.736;2023-08-30T03:05:08;8.63;;;6.25;;
8819;SDS011;4446;50.876;4.736;2023-08-30T03:07:37;8.73;;;5.65;;
8819;SDS011;4446;50.876;4.736;2023-08-30T03:10:05;10.63;;;6.20;;
8819;SDS011;4446;50.876;4.736;2023-08-30T03:12:33;8.93;;;6.07;;
8819;SDS011;4446;50.876;4.736;2023-08-30T03:15:00;8.13;;;6.32;;
8819;SDS011;4446;50.876;4.736;2023-08-30T03:17:27;10.00;;;6.45;;
8819;SDS011;4446;50.876;4.736;2023-08-30T03:19:54;8.73;;;5.82;;
8819;SDS011;4446;50.876;4.736;2023-08-30T03:22:21;10.20;;;5.85;;
8819;SDS011;4446;50.876;4.736;2023-08-30T03:24:48;9.10;;;5.35;;
8819;SDS011;4446;50.876;4.736;2023-08-30T03:27:17;10.43;;;5.93;;
8819;SDS011;4446;50.876;4.736;2023-08-30T03:29:44;7.47;;;5.57;;
8819;SDS011;4446;50.876;4.736;2023-08-30T03:32:17;8.93;;;5.50;;
8819;SDS011;4446;50.876;4.736;2023-08-30T03:34:44;10.13;;;5.80;;
8819;SDS011;4446;50.876;4.736;2023-08-30T03:37:11;8.57;;;5.72;;
8819;SDS011;4446;50.876;4.736;2023-08-30T03:39:39;7.75;;;6.15;;
8819;SDS011;4446;50.876;4.736;2023-08-30T03:42:06;8.05;;;6.13;;
8819;SDS011;4446;50.876;4.736;2023-08-30T03:44:35;10.18;;;6.85;;
8819;SDS011;4446;50.876;4.736;2023-08-30T03:47:03;8.38;;;6.05;;
8819;SDS011;4446;50.876;4.736;2023-08-30T03:49:30;10.68;;;6.20;;
8819;SDS011;4446;50.876;4.736;2023-08-30T03:51:57;10.40;;;6.63;;
8819;SDS011;4446;50.876;4.736;2023-08-30T03:54:24;9.00;;;5.95;;
8819;SDS011;4446;50.876;4.736;2023-08-30T03:56:51;13.25;;;7.00;;
8819;SDS011;4446;50.876;4.736;2023-08-30T03:59:18;9.02;;;6.07;;
8819;SDS011;4446;50.876;4.736;2023-08-30T04:01:50;10.68;;;6.05;;
8819;SDS011;4446;50.876;4.736;2023-08-30T04:04:17;10.25;;;5.95;;
8819;SDS011;4446;50.876;4.736;2023-08-30T04:06:44;11.40;;;6.57;;
8819;SDS011;4446;50.876;4.736;2023-08-30T04:09:11;10.75;;;6.50;;
8819;SDS011;4446;50.876;4.736;2023-08-30T04:11:38;8.90;;;5.80;;
8819;SDS011;4446;50.876;4.736;2023-08-30T04:14:06;10.73;;;6.80;;
8819;SDS011;4446;50.876;4.736;2023-08-30T04:16:33;9.27;;;6.45;;
8819;SDS011;4446;50.876;4.736;2023-08-30T04:19:01;11.27;;;6.05;;
8819;SDS011;4446;50.876;4.736;2023-08-30T04:21:28;9.15;;;6.38;;
8819;SDS011;4446;50.876;4.736;2023-08-30T04:23:55;8.48;;;6.15;;
8819;SDS011;4446;50.876;4.736;2023-08-30T04:26:22;9.27;;;6.57;;
8819;SDS011;4446;50.876;4.736;2023-08-30T04:28:49;8.02;;;5.40;;
8819;SDS011;4446;50.876;4.736;2023-08-30T04:31:16;10.63;;;6.28;;
8819;SDS011;4446;50.876;4.736;2023-08-30T04:33:43;7.60;;;5.50;;
8819;SDS011;4446;50.876;4.736;2023-08-30T04:36:11;7.93;;;5.65;;
8819;SDS011;4446;50.876;4.736;2023-08-30T04:38:38;9.85;;;5.95;;
8819;SDS011;4446;50.876;4.736;2023-08-30T04:41:05;8.98;;;5.90;;
8819;SDS011;4446;50.876;4.736;2023-08-30T04:43:32;7.85;;;5.55;;
8819;SDS011;4446;50.876;4.736;2023-08-30T04:45:59;8.68;;;5.60;;
8819;SDS011;4446;50.876;4.736;2023-08-30T04:48:26;7.38;;;5.10;;
8819;SDS011;4446;50.876;4.736;2023-08-30T04:51:00;8.30;;;5.40;;
8819;SDS011;4446;50.876;4.736;2023-08-30T04:53:29;7.50;;;5.22;;
8819;SDS011;4446;50.876;4.736;2023-08-30T04:55:56;7.68;;;5.15;;
8819;SDS011;4446;50.876;4.736;2023-08-30T04:58:24;6.05;;;4.50;;
8819;SDS011;4446;50.876;4.736;2023-08-30T05:00:51;5.90;;;4.80;;
8819;SDS011;4446;50.876;4.736;2023-08-30T05:03:18;6.07;;;4.45;;
8819;SDS011;4446;50.876;4.736;2023-08-30T05:05:45;10.50;;;5.05;;
8819;SDS011;4446;50.876;4.736;2023-08-30T05:08:12;7.60;;;4.63;;
8819;SDS011;4446;50.876;4.736;2023-08-30T05:10:40;8.70;;;4.40;;
8819;SDS011;4446;50.876;4.736;2023-08-30T05:13:08;6.38;;;4.50;;
8819;SDS011;4446;50.876;4.736;2023-08-30T05:15:36;7.18;;;4.10;;
8819;SDS011;4446;50.876;4.736;2023-08-30T05:18:03;6.22;;;4.03;;
8819;SDS011;4446;50.876;4.736;2023-08-30T05:20:30;5.65;;;3.85;;
8819;SDS011;4446;50.876;4.736;2023-08-30T05:22:57;5.32;;;4.00;;
8819;SDS011;4446;50.876;4.736;2023-08-30T05:25:24;5.32;;;3.63;;
8819;SDS011;4446;50.876;4.736;2023-08-30T05:27:53;5.15;;;3.47;;
8819;SDS011;4446;50.876;4.736;2023-08-30T05:30:20;4.45;;;3.25;;
8819;SDS011;4446;50.876;4.736;2023-08-30T05:32:47;6.22;;;3.50;;
8819;SDS011;4446;50.876;4.736;2023-08-30T05:35:14;3.88;;;3.38;;
8819;SDS011;4446;50.876;4.736;2023-08-30T05:37:41;3.70;;;3.10;;
8819;SDS011;4446;50.876;4.736;2023-08-30T05:40:08;6.45;;;2.83;;
8819;SDS011;4446;50.876;4.736;2023-08-30T05:42:40;3.80;;;2.70;;
8819;SDS011;4446;50.876;4.736;2023-08-30T05:45:09;4.47;;;2.97;;
8819;SDS011;4446;50.876;4.736;2023-08-30T05:47:36;4.55;;;2.90;;
8819;SDS011;4446;50.876;4.736;2023-08-30T05:50:03;3.90;;;2.50;;
8819;SDS011;4446;50.876;4.736;2023-08-30T05:52:31;4.50;;;2.58;;
8819;SDS011;4446;50.876;4.736;2023-08-30T05:54:59;2.55;;;2.10;;
8819;SDS011;4446;50.876;4.736;2023-08-30T05:57:26;3.47;;;2.22;;
8819;SDS011;4446;50.876;4.736;2023-08-30T05:59:58;3.65;;;2.80;;
8819;SDS011;4446;50.876;4.736;2023-08-30T06:02:26;3.63;;;2.90;;
8819;SDS011;4446;50.876;4.736;2023-08-30T06:04:53;2.78;;;2.22;;
8819;SDS011;4446;50.876;4.736;2023-08-30T06:07:20;3.85;;;2.22;;
8819;SDS011;4446;50.876;4.736;2023-08-30T06:09:47;3.17;;;2.30;;
8819;SDS011;4446;50.876;4.736;2023-08-30T06:12:14;3.72;;;2.63;;
8819;SDS011;4446;50.876;4.736;2023-08-30T06:14:42;4.15;;;2.65;;
8819;SDS011;4446;50.876;4.736;2023-08-30T06:17:15;3.78;;;2.40;;
8819;SDS011;4446;50.876;4.736;2023-08-30T06:19:44;7.40;;;2.70;;
8819;SDS011;4446;50.876;4.736;2023-08-30T06:22:11;3.50;;;2.15;;
8819;SDS011;4446;50.876;4.736;2023-08-30T06:24:38;4.90;;;2.75;;
8819;SDS011;4446;50.876;4.736;2023-08-30T06:27:05;3.38;;;2.20;;
8819;SDS011;4446;50.876;4.736;2023-08-30T06:29:32;4.07;;;2.58;;
8819;SDS011;4446;50.876;4.736;2023-08-30T06:31:59;3.17;;;2.40;;
8819;SDS011;4446;50.876;4.736;2023-08-30T06:34:27;4.05;;;2.58;;
8819;SDS011;4446;50.876;4.736;2023-08-30T06:36:55;4.28;;;2.80;;
8819;SDS011;4446;50.876;4.736;2023-08-30T06:39:23;3.38;;;2.03;;
8819;SDS011;4446;50.876;4.736;2023-08-30T06:41:50;3.42;;;2.00;;
8819;SDS011;4446;50.876;4.736;2023-08-30T06:44:17;5.40;;;2.20;;
8819;SDS011;4446;50.876;4.736;2023-08-30T06:46:44;2.63;;;2.10;;
8819;SDS011;4446;50.876;4.736;2023-08-30T06:49:11;3.53;;;1.95;;
8819;SDS011;4446;50.876;4.736;2023-08-30T06:51:38;3.53;;;2.13;;
8819;SDS011;4446;50.876;4.736;2023-08-30T06:54:06;3.17;;;2.30;;
8819;SDS011;4446;50.876;4.736;2023-08-30T06:56:34;2.63;;;2.10;;
8819;SDS011;4446;50.876;4.736;2023-08-30T06:59:01;3.13;;;2.13;;
8819;SDS011;4446;50.876;4.736;2023-08-30T07:01:28;3.08;;;2.25;;
8819;SDS011;4446;50.876;4.736;2023-08-30T07:03:55;2.72;;;2.10;;
8819;SDS011;4446;50.876;4.736;2023-08-30T07:06:22;2.60;;;2.15;;
8819;SDS011;4446;50.876;4.736;2023-08-30T07:08:49;2.38;;;2.00;;
8819;SDS011;4446;50.876;4.736;2023-08-30T07:11:17;5.60;;;2.30;;
8819;SDS011;4446;50.876;4.736;2023-08-30T07:13:44;4.10;;;1.95;;
8819;SDS011;4446;50.876;4.736;2023-08-30T07:16:11;3.03;;;2.20;;
8819;SDS011;4446;50.876;4.736;2023-08-30T07:18:39;3.53;;;2.35;;
8819;SDS011;4446;50.876;4.736;2023-08-30T07:21:06;3.55;;;2.38;;
8819;SDS011;4446;50.876;4.736;2023-08-30T07:23:32;4.22;;;2.10;;
8819;SDS011;4446;50.876;4.736;2023-08-30T07:25:59;3.17;;;2.55;;
8819;SDS011;4446;50.876;4.736;2023-08-30T07:28:28;3.10;;;2.53;;
8819;SDS011;4446;50.876;4.736;2023-08-30T07:31:01;3.45;;;2.78;;
8819;SDS011;4446;50.876;4.736;2023-08-30T07:33:29;4.40;;;2.92;;
8819;SDS011;4446;50.876;4.736;2023-08-30T07:35:56;4.13;;;2.75;;
8819;SDS011;4446;50.876;4.736;2023-08-30T07:38:23;4.85;;;3.03;;
8819;SDS011;4446;50.876;4.736;2023-08-30T07:40:50;3.85;;;3.15;;
8819;SDS011;4446;50.876;4.736;2023-08-30T07:43:17;4.20;;;2.90;;
8819;SDS011;4446;50.876;4.736;2023-08-30T07:45:46;4.10;;;2.83;;
8819;SDS011;4446;50.876;4.736;2023-08-30T07:48:13;3.28;;;2.67;;
8819;SDS011;4446;50.876;4.736;2023-08-30T07:50:40;3.70;;;3.20;;
8819;SDS011;4446;50.876;4.736;2023-08-30T07:53:07;4.22;;;3.17;;
8819;SDS011;4446;50.876;4.736;2023-08-30T07:55:35;6.10;;;3.17;;
8819;SDS011;4446;50.876;4.736;2023-08-30T07:58:02;3.63;;;3.05;;
8819;SDS011;4446;50.876;4.736;2023-08-30T08:00:29;3.60;;;2.90;;
8819;SDS011;4446;50.876;4.736;2023-08-30T08:02:57;4.13;;;2.97;;
8819;SDS011;4446;50.876;4.736;2023-08-30T08:05:25;3.15;;;2.50;;
8819;SDS011;4446;50.876;4.736;2023-08-30T08:07:52;3.83;;;2.92;;
8819;SDS011;4446;50.876;4.736;2023-08-30T08:10:19;5.38;;;3.10;;
8819;SDS011;4446;50.876;4.736;2023-08-30T08:12:47;2.90;;;2.58;;
8819;SDS011;4446;50.876;4.736;2023-08-30T08:15:14;4.05;;;2.92;;
8819;SDS011;4446;50.876;4.736;2023-08-30T08:17:41;3.58;;;3.25;;
8819;SDS011;4446;50.876;4.736;2023-08-30T08:20:10;2.90;;;2.60;;
8819;SDS011;4446;50.876;4.736;2023-08-30T08:22:39;3.42;;;2.78;;
8819;SDS011;4446;50.876;4.736;2023-08-30T08:25:06;4.68;;;3.03;;
8819;SDS011;4446;50.876;4.736;2023-08-30T08:27:35;3.15;;;2.63;;
8819;SDS011;4446;50.876;4.736;2023-08-30T08:30:02;3.83;;;2.63;;
8819;SDS011;4446;50.876;4.736;2023-08-30T08:32:30;3.13;;;2.28;;
8819;SDS011;4446;50.876;4.736;2023-08-30T08:34:58;2.83;;;2.45;;
8819;SDS011;4446;50.876;4.736;2023-08-30T08:37:26;2.70;;;2.50;;
8819;SDS011;4446;50.876;4.736;2023-08-30T08:39:53;4.45;;;2.75;;
8819;SDS011;4446;50.876;4.736;2023-08-30T08:42:20;3.83;;;2.70;;
8819;SDS011;4446;50.876;4.736;2023-08-30T08:44:49;3.55;;;2.58;;
8819;SDS011;4446;50.876;4.736;2023-08-30T08:47:18;3.67;;;2.70;;
8819;SDS011;4446;50.876;4.736;2023-08-30T08:49:46;3.88;;;2.70;;
8819;SDS011;4446;50.876;4.736;2023-08-30T08:52:14;5.05;;;2.70;;
8819;SDS011;4446;50.876;4.736;2023-08-30T08:54:42;2.65;;;2.45;;
8819;SDS011;4446;50.876;4.736;2023-08-30T08:57:10;5.20;;;2.60;;
8819;SDS011;4446;50.876;4.736;2023-08-30T08:59:38;3.15;;;2.60;;
8819;SDS011;4446;50.876;4.736;2023-08-30T09:02:05;2.80;;;2.50;;
8819;SDS011;4446;50.876;4.736;2023-08-30T09:04:33;2.22;;;2.03;;
8819;SDS011;4446;50.876;4.736;2023-08-30T09:07:00;2.60;;;2.40;;
8819;SDS011;4446;50.876;4.736;2023-08-30T09:09:27;3.13;;;2.47;;
8819;SDS011;4446;50.876;4.736;2023-08-30T09:11:57;2.55;;;2.30;;
8819;SDS011;4446;50.876;4.736;2023-08-30T09:14:24;2.60;;;2.35;;
8819;SDS011;4446;50.876;4.736;2023-08-30T09:16:54;2.20;;;2.00;;
8819;SDS011;4446;50.876;4.736;2023-08-30T09:19:21;3.13;;;2.05;;
8819;SDS011;4446;50.876;4.736;2023-08-30T09:21:52;2.33;;;2.13;;
8819;SDS011;4446;50.876;4.736;2023-08-30T09:24:19;2.20;;;2.00;;
8819;SDS011;4446;50.876;4.736;2023-08-30T09:26:47;2.55;;;1.95;;
8819;SDS011;4446;50.876;4.736;2023-08-30T09:29:16;2.20;;;2.00;;
8819;SDS011;4446;50.876;4.736;2023-08-30T09:31:44;3.28;;;2.10;;
8819;SDS011;4446;50.876;4.736;2023-08-30T09:34:12;2.53;;;2.13;;
8819;SDS011;4446;50.876;4.736;2023-08-30T09:36:40;2.60;;;2.15;;
8819;SDS011;4446;50.876;4.736;2023-08-30T09:39:08;2.85;;;2.33;;
8819;SDS011;4446;50.876;4.736;2023-08-30T09:41:36;2.17;;;1.98;;
8819;SDS011;4446;50.876;4.736;2023-08-30T09:44:07;2.30;;;2.10;;
8819;SDS011;4446;50.876;4.736;2023-08-30T09:46:43;2.95;;;2.30;;
8819;SDS011;4446;50.876;4.736;2023-08-30T09:49:11;2.58;;;2.30;;
8819;SDS011;4446;50.876;4.736;2023-08-30T09:51:41;2.95;;;2.15;;
8819;SDS011;4446;50.876;4.736;2023-08-30T09:54:15;2.33;;;2.13;;
8819;SDS011;4446;50.876;4.736;2023-08-30T09:56:44;2.90;;;2.20;;
8819;SDS011;4446;50.876;4.736;2023-08-30T09:59:12;2.78;;;2.20;;
8819;SDS011;4446;50.876;4.736;2023-08-30T10:01:40;2.83;;;2.42;;
8819;SDS011;4446;50.876;4.736;2023-08-30T10:04:10;2.92;;;2.50;;
8819;SDS011;4446;50.876;4.736;2023-08-30T10:06:37;2.88;;;2.40;;
8819;SDS011;4446;50.876;4.736;2023-08-30T10:09:05;4.00;;;2.90;;
8819;SDS011;4446;50.876;4.736;2023-08-30T10:11:34;2.38;;;2.05;;
8819;SDS011;4446;50.876;4.736;2023-08-30T10:14:02;2.63;;;2.42;;
8819;SDS011;4446;50.876;4.736;2023-08-30T10:16:30;3.38;;;3.08;;
8819;SDS011;4446;50.876;4.736;2023-08-30T10:19:14;3.35;;;2.60;;
8819;SDS011;4446;50.876;4.736;2023-08-30T10:21:47;3.90;;;2.90;;
8819;SDS011;4446;50.876;4.736;2023-08-30T10:24:19;3.08;;;2.80;;
8819;SDS011;4446;50.876;4.736;2023-08-30T10:26:48;3.15;;;2.80;;
8819;SDS011;4446;50.876;4.736;2023-08-30T10:29:16;3.90;;;3.03;;
8819;SDS011;4446;50.876;4.736;2023-08-30T10:31:45;3.60;;;2.83;;
8819;SDS011;4446;50.876;4.736;2023-08-30T10:34:13;3.40;;;2.83;;
8819;SDS011;4446;50.876;4.736;2023-08-30T10:36:43;4.03;;;3.42;;
8819;SDS011;4446;50.876;4.736;2023-08-30T10:39:13;4.68;;;3.58;;
8819;SDS011;4446;50.876;4.736;2023-08-30T10:41:54;4.28;;;3.65;;
8819;SDS011;4446;50.876;4.736;2023-08-30T10:44:22;5.90;;;3.60;;
8819;SDS011;4446;50.876;4.736;2023-08-30T10:46:51;4.35;;;3.80;;
8819;SDS011;4446;50.876;4.736;2023-08-30T10:49:20;4.93;;;4.03;;
8819;SDS011;4446;50.876;4.736;2023-08-30T10:51:55;5.43;;;4.38;;
8819;SDS011;4446;50.876;4.736;2023-08-30T10:54:23;6.75;;;4.38;;
8819;SDS011;4446;50.876;4.736;2023-08-30T10:56:55;6.35;;;4.32;;
8819;SDS011;4446;50.876;4.736;2023-08-30T10:59:25;4.25;;;3.85;;
8819;SDS011;4446;50.876;4.736;2023-08-30T11:01:53;5.00;;;4.40;;
8819;SDS011;4446;50.876;4.736;2023-08-30T11:04:21;5.30;;;3.95;;
8819;SDS011;4446;50.876;4.736;2023-08-30T11:06:49;7.18;;;4.30;;
8819;SDS011;4446;50.876;4.736;2023-08-30T11:09:21;6.93;;;4.22;;
8819;SDS011;4446;50.876;4.736;2023-08-30T11:11:48;4.72;;;3.95;;
8819;SDS011;4446;50.876;4.736;2023-08-30T11:14:17;4.55;;;3.85;;
8819;SDS011;4446;50.876;4.736;2023-08-30T11:16:45;5.18;;;4.32;;
8819;SDS011;4446;50.876;4.736;2023-08-30T11:19:12;5.53;;;4.20;;
8819;SDS011;4446;50.876;4.736;2023-08-30T11:21:39;4.22;;;3.63;;
8819;SDS011;4446;50.876;4.736;2023-08-30T11:24:08;5.15;;;4.10;;
8819;SDS011;4446;50.876;4.736;2023-08-30T11:26:37;4.35;;;3.95;;
8819;SDS011;4446;50.876;4.736;2023-08-30T11:29:05;4.72;;;3.72;;
8819;SDS011;4446;50.876;4.736;2023-08-30T11:31:32;4.32;;;3.53;;
8819;SDS011;4446;50.876;4.736;2023-08-30T11:34:00;4.07;;;3.67;;
8819;SDS011;4446;50.876;4.736;2023-08-30T11:36:27;4.35;;;3.78;;
8819;SDS011;4446;50.876;4.736;2023-08-30T11:38:55;4.32;;;3.30;;
8819;SDS011;4446;50.876;4.736;2023-08-30T11:41:23;3.85;;;3.35;;
8819;SDS011;4446;50.876;4.736;2023-08-30T11:43:53;3.95;;;3.55;;
8819;SDS011;4446;50.876;4.736;2023-08-30T11:46:20;5.45;;;3.40;;
8819;SDS011;4446;50.876;4.736;2023-08-30T11:48:51;4.47;;;3.75;;
8819;SDS011;4446;50.876;4.736;2023-08-30T11:51:18;4.50;;;3.78;;
8819;SDS011;4446;50.876;4.736;2023-08-30T11:53:46;4.60;;;3.83;;
8819;SDS011;4446;50.876;4.736;2023-08-30T11:56:13;4.97;;;3.58;;
8819;SDS011;4446;50.876;4.736;2023-08-30T11:58:42;5.18;;;4.68;;
8819;SDS011;4446;50.876;4.736;2023-08-30T12:01:11;5.40;;;3.88;;
8819;SDS011;4446;50.876;4.736;2023-08-30T12:03:38;4.32;;;3.80;;
8819;SDS011;4446;50.876;4.736;2023-08-30T12:06:09;4.00;;;3.58;;
8819;SDS011;4446;50.876;4.736;2023-08-30T12:08:36;5.10;;;3.60;;
8819;SDS011;4446;50.876;4.736;2023-08-30T12:11:03;4.78;;;3.50;;
8819;SDS011;4446;50.876;4.736;2023-08-30T12:13:32;4.88;;;3.58;;
8819;SDS011;4446;50.876;4.736;2023-08-30T12:16:00;4.28;;;3.42;;
8819;SDS011;4446;50.876;4.736;2023-08-30T12:18:31;4.88;;;3.67;;
8819;SDS011;4446;50.876;4.736;2023-08-30T12:20:59;4.93;;;3.25;;
8819;SDS011;4446;50.876;4.736;2023-08-30T12:23:27;3.10;;;2.80;;
8819;SDS011;4446;50.876;4.736;2023-08-30T12:25:58;4.50;;;2.55;;
8819;SDS011;4446;50.876;4.736;2023-08-30T12:28:26;3.47;;;2.30;;
8819;SDS011;4446;50.876;4.736;2023-08-30T12:30:54;3.20;;;2.42;;
8819;SDS011;4446;50.876;4.736;2023-08-30T12:33:22;5.25;;;2.25;;
8819;SDS011;4446;50.876;4.736;2023-08-30T12:35:52;4.32;;;2.15;;
8819;SDS011;4446;50.876;4.736;2023-08-30T12:38:20;4.30;;;1.85;;
8819;SDS011;4446;50.876;4.736;2023-08-30T12:40:48;2.80;;;1.88;;
8819;SDS011;4446;50.876;4.736;2023-08-30T12:43:16;4.32;;;1.80;;
8819;SDS011;4446;50.876;4.736;2023-08-30T12:45:43;2.67;;;1.73;;
8819;SDS011;4446;50.876;4.736;2023-08-30T12:48:11;5.65;;;1.88;;
8819;SDS011;4446;50.876;4.736;2023-08-30T12:50:39;2.20;;;1.48;;
8819;SDS011;4446;50.876;4.736;2023-08-30T12:53:08;3.25;;;2.20;;
8819;SDS011;4446;50.876;4.736;2023-08-30T12:55:35;3.47;;;1.52;;
8819;SDS011;4446;50.876;4.736;2023-08-30T12:58:04;3.28;;;1.90;;
8819;SDS011;4446;50.876;4.736;2023-08-30T13:00:31;3.35;;;1.60;;
8819;SDS011;4446;50.876;4.736;2023-08-30T13:02:58;4.32;;;1.70;;
8819;SDS011;4446;50.876;4.736;2023-08-30T13:05:25;2.75;;;1.40;;
8819;SDS011;4446;50.876;4.736;2023-08-30T13:07:52;4.63;;;1.60;;
8819;SDS011;4446;50.876;4.736;2023-08-30T13:10:21;3.03;;;1.55;;
8819;SDS011;4446;50.876;4.736;2023-08-30T13:12:48;5.20;;;1.63;;
8819;SDS011;4446;50.876;4.736;2023-08-30T13:15:15;4.28;;;1.60;;
8819;SDS011;4446;50.876;4.736;2023-08-30T13:17:42;2.60;;;1.90;;
8819;SDS011;4446;50.876;4.736;2023-08-30T13:20:10;3.80;;;1.70;;
8819;SDS011;4446;50.876;4.736;2023-08-30T13:22:37;1.90;;;1.50;;
8819;SDS011;4446;50.876;4.736;2023-08-30T13:25:04;2.38;;;1.35;;
8819;SDS011;4446;50.876;4.736;2023-08-30T13:27:34;3.47;;;1.60;;
8819;SDS011;4446;50.876;4.736;2023-08-30T13:30:01;3.55;;;1.73;;
8819;SDS011;4446;50.876;4.736;2023-08-30T13:32:28;2.63;;;1.60;;
8819;SDS011;4446;50.876;4.736;2023-08-30T13:34:55;4.78;;;1.75;;
8819;SDS011;4446;50.876;4.736;2023-08-30T13:37:22;3.45;;;1.70;;
8819;SDS011;4446;50.876;4.736;2023-08-30T13:39:49;3.90;;;1.60;;
8819;SDS011;4446;50.876;4.736;2023-08-30T13:42:18;1.63;;;1.38;;
8819;SDS011;4446;50.876;4.736;2023-08-30T13:44:49;3.95;;;1.42;;
8819;SDS011;4446;50.876;4.736;2023-08-30T13:47:17;2.00;;;1.40;;
8819;SDS011;4446;50.876;4.736;2023-08-30T13:49:44;3.20;;;1.73;;
8819;SDS011;4446;50.876;4.736;2023-08-30T13:52:11;3.25;;;1.33;;
8819;SDS011;4446;50.876;4.736;2023-08-30T13:54:38;2.35;;;1.48;;
8819;SDS011;4446;50.876;4.736;2023-08-30T13:57:05;3.15;;;1.38;;
8819;SDS011;4446;50.876;4.736;2023-08-30T13:59:32;2.40;;;1.42;;
8819;SDS011;4446;50.876;4.736;2023-08-30T14:02:02;1.33;;;1.20;;
8819;SDS011;4446;50.876;4.736;2023-08-30T14:04:29;1.50;;;1.20;;
8819;SDS011;4446;50.876;4.736;2023-08-30T14:06:58;2.85;;;1.15;;
8819;SDS011;4446;50.876;4.736;2023-08-30T14:09:25;3.30;;;1.52;;
8819;SDS011;4446;50.876;4.736;2023-08-30T14:11:52;5.68;;;1.67;;
8819;SDS011;4446;50.876;4.736;2023-08-30T14:14:20;2.78;;;1.50;;
8819;SDS011;4446;50.876;4.736;2023-08-30T14:16:47;4.82;;;1.20;;
8819;SDS011;4446;50.876;4.736;2023-08-30T14:19:15;3.33;;;1.45;;
8819;SDS011;4446;50.876;4.736;2023-08-30T14:21:43;1.20;;;1.10;;
8819;SDS011;4446;50.876;4.736;2023-08-30T14:24:10;3.92;;;1.20;;
8819;SDS011;4446;50.876;4.736;2023-08-30T14:26:37;1.90;;;1.20;;
8819;SDS011;4446;50.876;4.736;2023-08-30T14:29:04;3.88;;;1.55;;
8819;SDS011;4446;50.876;4.736;2023-08-30T14:31:31;1.80;;;1.17;;
8819;SDS011;4446;50.876;4.736;2023-08-30T14:33:58;4.82;;;1.60;;
8819;SDS011;4446;50.876;4.736;2023-08-30T14:36:26;2.83;;;1.50;;
8819;SDS011;4446;50.876;4.736;2023-08-30T14:38:54;2.10;;;1.30;;
8819;SDS011;4446;50.876;4.736;2023-08-30T14:41:21;2.42;;;1.20;;
8819;SDS011;4446;50.876;4.736;2023-08-30T14:43:51;5.35;;;1.95;;
8819;SDS011;4446;50.876;4.736;2023-08-30T14:46:18;2.03;;;1.40;;
8819;SDS011;4446;50.876;4.736;2023-08-30T14:48:45;2.00;;;1.25;;
8819;SDS011;4446;50.876;4.736;2023-08-30T14:51:13;2.17;;;1.35;;
8819;SDS011;4446;50.876;4.736;2023-08-30T14:53:41;3.13;;;1.40;;
8819;SDS011;4446;50.876;4.736;2023-08-30T14:56:08;1.95;;;1.10;;
8819;SDS011;4446;50.876;4.736;2023-08-30T14:58:36;1.58;;;1.25;;
8819;SDS011;4446;50.876;4.736;2023-08-30T15:01:04;3.08;;;1.20;;
8819;SDS011;4446;50.876;4.736;2023-08-30T15:03:31;2.25;;;1.20;;
8819;SDS011;4446;50.876;4.736;2023-08-30T15:05:58;1.88;;;1.50;;
8819;SDS011;4446;50.876;4.736;2023-08-30T15:08:25;2.00;;;1.30;;
8819;SDS011;4446;50.876;4.736;2023-08-30T15:10:53;1.73;;;1.33;;
8819;SDS011;4446;50.876;4.736;2023-08-30T15:13:20;3.28;;;1.75;;
8819;SDS011;4446;50.876;4.736;2023-08-30T15:15:47;2.85;;;1.88;;
8819;SDS011;4446;50.876;4.736;2023-08-30T15:18:14;2.95;;;1.20;;
8819;SDS011;4446;50.876;4.736;2023-08-30T15:20:42;3.70;;;1.42;;